sensor_id;sensor_type;location;lat;lon;timestamp;pressure;altitude;pressure_sealevel;temperature;humidity
27958;BME280;15295;42.658;23.374;2023-05-24T00:00:38;94369.38;;;18.59;47.95
27958;BME280;15295;42.658;23.374;2023-05-24T00:06:34;94421.47;;;18.82;48.50
27958;BME280;15295;42.658;23.374;2023-05-24T00:09:32;94422.53;;;18.76;49.01
27958;BME280;15295;42.658;23.374;2023-05-24T00:12:24;94395.53;;;18.58;49.00
27958;BME280;15295;42.658;23.374;2023-05-24T00:15:05;94367.97;;;18.33;49.24
27958;BME280;15295;42.658;23.374;2023-05-24T00:17:34;94398.34;;;18.45;49.09
27958;BME280;15295;42.658;23.374;2023-05-24T00:20:14;94366.06;;;18.21;49.45
27958;BME280;15295;42.658;23.374;2023-05-24T00:22:52;94378.53;;;18.25;49.50
27958;BME280;15295;42.658;23.374;2023-05-24T00:25:18;94371.28;;;18.19;49.45
27958;BME280;15295;42.658;23.374;2023-05-24T00:27:50;94362.09;;;18.00;50.07
27958;BME280;15295;42.658;23.374;2023-05-24T00:30:18;94412.25;;;18.33;50.06
27958;BME280;15295;42.658;23.374;2023-05-24T00:32:51;94423.84;;;18.40;49.99
27958;BME280;15295;42.658;23.374;2023-05-24T00:35:18;94410.38;;;18.30;50.11
27958;BME280;15295;42.658;23.374;2023-05-24T00:37:46;94357.31;;;18.01;50.25
27958;BME280;15295;42.658;23.374;2023-05-24T00:40:28;94359.31;;;18.00;50.73
27958;BME280;15295;42.658;23.374;2023-05-24T00:43:11;94410.31;;;18.42;50.34
27958;BME280;15295;42.658;23.374;2023-05-24T00:45:37;94396.66;;;18.26;50.19
27958;BME280;15295;42.658;23.374;2023-05-24T00:48:04;94411.03;;;18.34;50.22
27958;BME280;15295;42.658;23.374;2023-05-24T00:50:31;94368.63;;;17.94;50.63
27958;BME280;15295;42.658;23.374;2023-05-24T00:53:07;94398.84;;;18.10;50.96
27958;BME280;15295;42.658;23.374;2023-05-24T00:55:35;94374.72;;;17.89;50.79
27958;BME280;15295;42.658;23.374;2023-05-24T00:58:32;94390.06;;;18.02;51.21
27958;BME280;15295;42.658;23.374;2023-05-24T01:01:24;94392.81;;;18.02;51.42
27958;BME280;15295;42.658;23.374;2023-05-24T01:03:59;94411.91;;;18.09;51.36
27958;BME280;15295;42.658;23.374;2023-05-24T01:06:27;94408.19;;;18.03;51.58
27958;BME280;15295;42.658;23.374;2023-05-24T01:11:56;94415.81;;;17.99;51.66
27958;BME280;15295;42.658;23.374;2023-05-24T01:14:52;94415.81;;;17.99;51.93
27958;BME280;15295;42.658;23.374;2023-05-24T01:20:16;94413.91;;;17.87;51.84
27958;BME280;15295;42.658;23.374;2023-05-24T01:23:50;94387.09;;;17.62;52.11
27958;BME280;15295;42.658;23.374;2023-05-24T01:28:45;94408.78;;;17.64;51.98
27958;BME280;15295;42.658;23.374;2023-05-24T01:31:16;94407.25;;;17.50;52.04
27958;BME280;15295;42.658;23.374;2023-05-24T01:33:43;94385.34;;;17.43;52.17
27958;BME280;15295;42.658;23.374;2023-05-24T01:36:13;94408.34;;;17.53;51.93
27958;BME280;15295;42.658;23.374;2023-05-24T01:38:54;94375.56;;;17.30;52.28
27958;BME280;15295;42.658;23.374;2023-05-24T01:41:48;94394.41;;;17.44;52.94
27958;BME280;15295;42.658;23.374;2023-05-24T01:44:28;94376.41;;;17.39;52.84
27958;BME280;15295;42.658;23.374;2023-05-24T01:49:56;94384.25;;;17.41;53.12
27958;BME280;15295;42.658;23.374;2023-05-24T01:52:28;94376.22;;;17.34;52.92
27958;BME280;15295;42.658;23.374;2023-05-24T01:55:02;94378.41;;;17.26;53.17
27958;BME280;15295;42.658;23.374;2023-05-24T01:57:29;94404.59;;;17.47;53.30
27958;BME280;15295;42.658;23.374;2023-05-24T02:00:09;94388.47;;;17.33;53.49
27958;BME280;15295;42.658;23.374;2023-05-24T02:02:40;94407.91;;;17.42;53.67
27958;BME280;15295;42.658;23.374;2023-05-24T02:05:10;94398.72;;;17.32;53.60
27958;BME280;15295;42.658;23.374;2023-05-24T02:07:39;94372.03;;;17.17;53.08
27958;BME280;15295;42.658;23.374;2023-05-24T02:10:45;94403.72;;;17.37;53.20
27958;BME280;15295;42.658;23.374;2023-05-24T02:13:15;94425.13;;;17.46;53.44
27958;BME280;15295;42.658;23.374;2023-05-24T02:15:43;94426.91;;;17.52;53.90
27958;BME280;15295;42.658;23.374;2023-05-24T02:18:14;94368.34;;;17.32;53.16
27958;BME280;15295;42.658;23.374;2023-05-24T02:20:52;94403.59;;;17.53;52.93
27958;BME280;15295;42.658;23.374;2023-05-24T02:23:54;94408.88;;;17.48;53.00
27958;BME280;15295;42.658;23.374;2023-05-24T02:26:24;94385.59;;;17.24;52.49
27958;BME280;15295;42.658;23.374;2023-05-24T02:29:05;94384.50;;;17.09;52.46
27958;BME280;15295;42.658;23.374;2023-05-24T02:31:31;94409.47;;;17.18;52.85
27958;BME280;15295;42.658;23.374;2023-05-24T02:33:59;94399.22;;;17.06;53.09
27958;BME280;15295;42.658;23.374;2023-05-24T02:36:46;94373.81;;;16.85;52.70
27958;BME280;15295;42.658;23.374;2023-05-24T02:39:12;94403.19;;;17.05;52.89
27958;BME280;15295;42.658;23.374;2023-05-24T02:41:38;94414.56;;;17.07;52.83
27958;BME280;15295;42.658;23.374;2023-05-24T02:44:04;94407.50;;;17.06;52.74
27958;BME280;15295;42.658;23.374;2023-05-24T02:46:33;94375.72;;;16.88;52.52
27958;BME280;15295;42.658;23.374;2023-05-24T02:49:19;94399.56;;;16.95;52.86
27958;BME280;15295;42.658;23.374;2023-05-24T02:51:45;94395.56;;;16.83;53.27
27958;BME280;15295;42.658;23.374;2023-05-24T02:54:12;94378.47;;;16.63;53.24
27958;BME280;15295;42.658;23.374;2023-05-24T02:56:45;94368.41;;;16.57;53.28
27958;BME280;15295;42.658;23.374;2023-05-24T02:59:16;94354.78;;;16.37;53.65
27958;BME280;15295;42.658;23.374;2023-05-24T03:02:04;94385.72;;;16.57;53.74
27958;BME280;15295;42.658;23.374;2023-05-24T03:04:30;94355.13;;;16.39;53.78
27958;BME280;15295;42.658;23.374;2023-05-24T03:07:02;94412.38;;;16.76;53.70
27958;BME280;15295;42.658;23.374;2023-05-24T03:09:28;94405.81;;;16.70;53.67
27958;BME280;15295;42.658;23.374;2023-05-24T03:11:59;94402.31;;;16.70;53.47
27958;BME280;15295;42.658;23.374;2023-05-24T03:14:27;94375.69;;;16.51;53.52
27958;BME280;15295;42.658;23.374;2023-05-24T03:17:03;94433.09;;;16.81;53.85
27958;BME280;15295;42.658;23.374;2023-05-24T03:19:33;94410.91;;;16.72;53.50
27958;BME280;15295;42.658;23.374;2023-05-24T03:22:25;94405.81;;;16.70;53.60
27958;BME280;15295;42.658;23.374;2023-05-24T03:24:54;94426.91;;;16.89;53.42
27958;BME280;15295;42.658;23.374;2023-05-24T03:27:26;94398.78;;;16.69;53.46
27958;BME280;15295;42.658;23.374;2023-05-24T03:29:55;94432.78;;;16.91;53.52
27958;BME280;15295;42.658;23.374;2023-05-24T03:32:22;94416.97;;;16.79;53.84
27958;BME280;15295;42.658;23.374;2023-05-24T03:34:49;94414.88;;;16.83;53.72
27958;BME280;15295;42.658;23.374;2023-05-24T03:37:18;94399.22;;;16.80;53.84
27958;BME280;15295;42.658;23.374;2023-05-24T03:39:46;94387.28;;;16.83;53.58
27958;BME280;15295;42.658;23.374;2023-05-24T03:42:16;94392.47;;;16.94;53.31
27958;BME280;15295;42.658;23.374;2023-05-24T03:44:47;94444.28;;;17.28;53.12
27958;BME280;15295;42.658;23.374;2023-05-24T03:47:24;94448.78;;;17.34;53.40
27958;BME280;15295;42.658;23.374;2023-05-24T03:49:56;94432.66;;;17.33;52.83
27958;BME280;15295;42.658;23.374;2023-05-24T03:52:27;94383.53;;;17.03;52.42
27958;BME280;15295;42.658;23.374;2023-05-24T03:54:56;94394.34;;;17.10;51.67
27958;BME280;15295;42.658;23.374;2023-05-24T03:57:31;94396.00;;;17.07;50.90
27958;BME280;15295;42.658;23.374;2023-05-24T03:59:59;94412.00;;;17.25;50.17
27958;BME280;15295;42.658;23.374;2023-05-24T04:02:25;94420.84;;;17.20;50.28
27958;BME280;15295;42.658;23.374;2023-05-24T04:04:53;94449.00;;;17.40;50.43
27958;BME280;15295;42.658;23.374;2023-05-24T04:07:22;94395.78;;;17.14;50.52
27958;BME280;15295;42.658;23.374;2023-05-24T04:10:12;94435.06;;;17.43;51.51
27958;BME280;15295;42.658;23.374;2023-05-24T04:13:00;94415.53;;;17.38;51.70
27958;BME280;15295;42.658;23.374;2023-05-24T04:15:36;94395.53;;;17.34;50.47
27958;BME280;15295;42.658;23.374;2023-05-24T04:18:06;94422.47;;;17.67;50.58
27958;BME280;15295;42.658;23.374;2023-05-24T04:20:35;94399.47;;;17.58;50.70
27958;BME280;15295;42.658;23.374;2023-05-24T04:23:18;94427.38;;;17.85;50.30
27958;BME280;15295;42.658;23.374;2023-05-24T04:25:51;94455.09;;;18.07;50.01
27958;BME280;15295;42.658;23.374;2023-05-24T04:28:21;94402.94;;;17.84;50.40
27958;BME280;15295;42.658;23.374;2023-05-24T04:30:47;94455.63;;;18.36;50.44
27958;BME280;15295;42.658;23.374;2023-05-24T04:33:24;94438.44;;;18.41;49.92
27958;BME280;15295;42.658;23.374;2023-05-24T04:36:05;94430.84;;;18.32;49.51
27958;BME280;15295;42.658;23.374;2023-05-24T04:38:37;94465.09;;;18.69;49.28
27958;BME280;15295;42.658;23.374;2023-05-24T04:41:06;94406.22;;;18.47;48.96
27958;BME280;15295;42.658;23.374;2023-05-24T04:43:37;94441.50;;;18.86;48.55
27958;BME280;15295;42.658;23.374;2023-05-24T04:46:11;94423.63;;;18.78;48.07
27958;BME280;15295;42.658;23.374;2023-05-24T04:48:37;94469.19;;;19.17;47.60
27958;BME280;15295;42.658;23.374;2023-05-24T04:51:18;94418.63;;;18.95;47.70
27958;BME280;15295;42.658;23.374;2023-05-24T04:53:46;94438.69;;;19.08;47.33
27958;BME280;15295;42.658;23.374;2023-05-24T04:56:15;94432.28;;;19.20;47.34
27958;BME280;15295;42.658;23.374;2023-05-24T04:58:49;94484.91;;;19.51;47.19
27958;BME280;15295;42.658;23.374;2023-05-24T05:01:18;94481.06;;;19.48;46.75
27958;BME280;15295;42.658;23.374;2023-05-24T05:03:50;94484.34;;;19.65;46.74
27958;BME280;15295;42.658;23.374;2023-05-24T05:06:34;94440.13;;;19.52;47.10
27958;BME280;15295;42.658;23.374;2023-05-24T05:09:38;94436.72;;;19.57;46.63
27958;BME280;15295;42.658;23.374;2023-05-24T05:13:20;94437.22;;;19.65;46.56
27958;BME280;15295;42.658;23.374;2023-05-24T05:15:57;94459.00;;;19.93;46.62
27958;BME280;15295;42.658;23.374;2023-05-24T05:34:40;94492.38;;;20.57;46.13
27958;BME280;15295;42.658;23.374;2023-05-24T05:37:39;94438.22;;;20.25;45.75
27958;BME280;15295;42.658;23.374;2023-05-24T05:40:40;94468.59;;;20.47;45.70
27958;BME280;15295;42.658;23.374;2023-05-24T05:43:44;94445.78;;;20.16;45.76
27958;BME280;15295;42.658;23.374;2023-05-24T05:46:27;94484.66;;;20.52;45.50
27958;BME280;15295;42.658;23.374;2023-05-24T06:03:27;94493.94;;;21.36;44.14
27958;BME280;15295;42.658;23.374;2023-05-24T06:07:18;94470.44;;;21.46;43.86
27958;BME280;15295;42.658;23.374;2023-05-24T06:10:29;94458.81;;;21.47;43.93
27958;BME280;15295;42.658;23.374;2023-05-24T06:13:26;94525.22;;;21.96;44.10
27958;BME280;15295;42.658;23.374;2023-05-24T06:49:58;94510.13;;;24.20;40.18
27958;BME280;15295;42.658;23.374;2023-05-24T06:55:06;94508.06;;;24.75;39.28
27958;BME280;15295;42.658;23.374;2023-05-24T06:57:39;94474.38;;;24.84;37.92
27958;BME280;15295;42.658;23.374;2023-05-24T07:00:10;94505.44;;;25.12;36.72
27958;BME280;15295;42.658;23.374;2023-05-24T07:02:48;94493.81;;;24.93;36.32
27958;BME280;15295;42.658;23.374;2023-05-24T07:05:18;94490.09;;;25.02;36.92
27958;BME280;15295;42.658;23.374;2023-05-24T07:07:54;94487.75;;;25.26;36.83
27958;BME280;15295;42.658;23.374;2023-05-24T07:10:21;94493.34;;;25.52;36.79
27958;BME280;15295;42.658;23.374;2023-05-24T07:12:51;94495.22;;;25.60;37.01
27958;BME280;15295;42.658;23.374;2023-05-24T07:15:36;94475.09;;;25.56;36.48
27958;BME280;15295;42.658;23.374;2023-05-24T08:00:53;94508.16;;;27.49;33.43
27958;BME280;15295;42.658;23.374;2023-05-24T08:03:19;94479.56;;;27.50;33.59
27958;BME280;15295;42.658;23.374;2023-05-24T08:05:44;94509.47;;;27.98;33.25
27958;BME280;15295;42.658;23.374;2023-05-24T08:08:12;94485.47;;;27.97;32.98
27958;BME280;15295;42.658;23.374;2023-05-24T08:10:38;94490.53;;;28.04;32.13
27958;BME280;15295;42.658;23.374;2023-05-24T08:13:06;94504.28;;;28.30;31.79
27958;BME280;15295;42.658;23.374;2023-05-24T08:15:35;94492.78;;;28.39;31.71
27958;BME280;15295;42.658;23.374;2023-05-24T09:10:06;94449.22;;;30.43;22.46
27958;BME280;15295;42.658;23.374;2023-05-24T09:59:10;94455.16;;;30.83;22.57
27958;BME280;15295;42.658;23.374;2023-05-24T11:47:19;94372.19;;;31.60;21.08
27958;BME280;15295;42.658;23.374;2023-05-24T11:49:51;94378.44;;;31.21;21.44
27958;BME280;15295;42.658;23.374;2023-05-24T11:52:20;94383.81;;;31.38;21.11
27958;BME280;15295;42.658;23.374;2023-05-24T11:54:50;94352.88;;;31.14;21.16
27958;BME280;15295;42.658;23.374;2023-05-24T11:57:36;94381.69;;;31.44;22.31
27958;BME280;15295;42.658;23.374;2023-05-24T12:00:05;94367.16;;;31.53;21.75
27958;BME280;15295;42.658;23.374;2023-05-24T12:02:44;94355.25;;;31.60;21.07
27958;BME280;15295;42.658;23.374;2023-05-24T12:08:00;94374.59;;;31.82;20.57
27958;BME280;15295;42.658;23.374;2023-05-24T12:10:28;94359.84;;;31.89;21.06
27958;BME280;15295;42.658;23.374;2023-05-24T12:12:56;94370.97;;;32.01;20.04
27958;BME280;15295;42.658;23.374;2023-05-24T12:15:24;94377.63;;;32.16;20.03
27958;BME280;15295;42.658;23.374;2023-05-24T12:17:51;94351.19;;;32.14;20.53
27958;BME280;15295;42.658;23.374;2023-05-24T12:20:31;94336.63;;;32.23;20.33
27958;BME280;15295;42.658;23.374;2023-05-24T12:26:02;94345.00;;;32.28;20.49
27958;BME280;15295;42.658;23.374;2023-05-24T12:28:36;94346.41;;;32.22;20.23
27958;BME280;15295;42.658;23.374;2023-05-24T12:31:04;94371.09;;;32.34;20.77
27958;BME280;15295;42.658;23.374;2023-05-24T12:33:50;94342.50;;;32.25;20.93
27958;BME280;15295;42.658;23.374;2023-05-24T12:36:39;94347.59;;;32.39;20.82
27958;BME280;15295;42.658;23.374;2023-05-24T12:39:29;94320.97;;;32.09;21.29
27958;BME280;15295;42.658;23.374;2023-05-24T12:42:22;94339.47;;;32.10;20.51
27958;BME280;15295;42.658;23.374;2023-05-24T12:44:49;94335.41;;;31.92;20.98
27958;BME280;15295;42.658;23.374;2023-05-24T12:47:20;94370.31;;;31.94;21.18
27958;BME280;15295;42.658;23.374;2023-05-24T12:49:47;94361.25;;;31.83;21.17
27958;BME280;15295;42.658;23.374;2023-05-24T12:52:18;94343.84;;;31.66;21.81
27958;BME280;15295;42.658;23.374;2023-05-24T12:54:46;94331.50;;;31.50;21.53
27958;BME280;15295;42.658;23.374;2023-05-24T12:57:14;94351.53;;;31.65;21.08
27958;BME280;15295;42.658;23.374;2023-05-24T12:59:42;94331.97;;;31.54;21.14
27958;BME280;15295;42.658;23.374;2023-05-24T13:02:26;94343.31;;;31.80;21.39
27958;BME280;15295;42.658;23.374;2023-05-24T13:04:56;94345.50;;;31.87;21.22
27958;BME280;15295;42.658;23.374;2023-05-24T13:07:24;94330.16;;;31.70;20.80
27958;BME280;15295;42.658;23.374;2023-05-24T13:09:49;94346.47;;;31.77;20.91
27958;BME280;15295;42.658;23.374;2023-05-24T13:12:15;94342.44;;;31.85;20.91
27958;BME280;15295;42.658;23.374;2023-05-24T13:14:43;94337.66;;;31.93;20.73
27958;BME280;15295;42.658;23.374;2023-05-24T14:40:44;94300.88;;;29.20;26.23
27958;BME280;15295;42.658;23.374;2023-05-24T14:43:26;94308.50;;;29.25;26.23
27958;BME280;15295;42.658;23.374;2023-05-24T14:46:57;94355.06;;;29.55;26.03
27958;BME280;15295;42.658;23.374;2023-05-24T14:49:45;94304.38;;;29.26;26.21
27958;BME280;15295;42.658;23.374;2023-05-24T14:52:47;94361.41;;;29.61;27.87
27958;BME280;15295;42.658;23.374;2023-05-24T14:55:26;94317.00;;;29.14;27.93
27958;BME280;15295;42.658;23.374;2023-05-24T14:58:09;94348.72;;;29.20;28.75
27958;BME280;15295;42.658;23.374;2023-05-24T15:01:02;94326.38;;;28.92;28.94
27958;BME280;15295;42.658;23.374;2023-05-24T15:03:40;94313.47;;;28.72;29.17
27958;BME280;15295;42.658;23.374;2023-05-24T15:06:17;94305.13;;;28.56;29.77
27958;BME280;15295;42.658;23.374;2023-05-24T15:09:09;94316.88;;;28.65;29.83
27958;BME280;15295;42.658;23.374;2023-05-24T15:11:52;94291.06;;;28.56;30.20
27958;BME280;15295;42.658;23.374;2023-05-24T15:14:21;94321.41;;;28.74;29.61
27958;BME280;15295;42.658;23.374;2023-05-24T15:16:47;94285.81;;;28.41;30.06
27958;BME280;15295;42.658;23.374;2023-05-24T15:19:14;94323.97;;;28.72;30.12
27958;BME280;15295;42.658;23.374;2023-05-24T15:21:55;94348.97;;;28.81;29.89
27958;BME280;15295;42.658;23.374;2023-05-24T15:24:39;94289.13;;;28.40;30.18
27958;BME280;15295;42.658;23.374;2023-05-24T15:27:26;94277.44;;;28.30;29.57
27958;BME280;15295;42.658;23.374;2023-05-24T15:32:36;94294.22;;;28.41;28.64
27958;BME280;15295;42.658;23.374;2023-05-24T15:38:24;94319.50;;;28.47;28.59
27958;BME280;15295;42.658;23.374;2023-05-24T15:40:50;94343.47;;;28.53;28.14
27958;BME280;15295;42.658;23.374;2023-05-24T15:43:17;94332.28;;;28.42;28.22
27958;BME280;15295;42.658;23.374;2023-05-24T15:45:44;94290.50;;;28.22;27.99
27958;BME280;15295;42.658;23.374;2023-05-24T15:48:10;94326.38;;;28.51;27.08
27958;BME280;15295;42.658;23.374;2023-05-24T15:50:43;94323.56;;;28.51;26.39
27958;BME280;15295;42.658;23.374;2023-05-24T15:53:58;94351.09;;;28.64;25.95
27958;BME280;15295;42.658;23.374;2023-05-24T15:59:17;94332.75;;;28.57;26.53
27958;BME280;15295;42.658;23.374;2023-05-24T16:02:16;94356.13;;;28.76;27.38
27958;BME280;15295;42.658;23.374;2023-05-24T16:05:03;94318.69;;;28.57;27.00
27958;BME280;15295;42.658;23.374;2023-05-24T16:08:24;94315.63;;;28.61;26.47
27958;BME280;15295;42.658;23.374;2023-05-24T16:11:44;94359.91;;;28.90;26.16
27958;BME280;15295;42.658;23.374;2023-05-24T16:17:14;94312.50;;;28.64;27.35
27958;BME280;15295;42.658;23.374;2023-05-24T16:19:41;94366.78;;;28.94;26.53
27958;BME280;15295;42.658;23.374;2023-05-24T16:22:28;94337.50;;;28.73;26.42
27958;BME280;15295;42.658;23.374;2023-05-24T16:24:55;94369.09;;;28.90;27.12
27958;BME280;15295;42.658;23.374;2023-05-24T16:27:25;94353.84;;;28.80;27.58
27958;BME280;15295;42.658;23.374;2023-05-24T16:30:01;94360.69;;;28.85;27.72
27958;BME280;15295;42.658;23.374;2023-05-24T16:32:52;94354.94;;;28.66;28.23
27958;BME280;15295;42.658;23.374;2023-05-24T16:35:18;94326.66;;;28.42;27.91
27958;BME280;15295;42.658;23.374;2023-05-24T16:37:43;94360.59;;;28.55;28.27
27958;BME280;15295;42.658;23.374;2023-05-24T16:40:09;94357.31;;;28.46;28.30
27958;BME280;15295;42.658;23.374;2023-05-24T16:42:35;94375.69;;;28.58;27.95
27958;BME280;15295;42.658;23.374;2023-05-24T16:45:06;94339.50;;;28.38;27.76
27958;BME280;15295;42.658;23.374;2023-05-24T16:47:36;94369.09;;;28.44;28.15
27958;BME280;15295;42.658;23.374;2023-05-24T16:50:02;94378.03;;;28.48;28.45
27958;BME280;15295;42.658;23.374;2023-05-24T16:52:28;94377.78;;;28.46;28.46
27958;BME280;15295;42.658;23.374;2023-05-24T16:54:53;94368.91;;;28.31;28.71
27958;BME280;15295;42.658;23.374;2023-05-24T16:57:18;94382.94;;;28.31;28.77
27958;BME280;15295;42.658;23.374;2023-05-24T16:59:47;94368.69;;;28.18;29.37
27958;BME280;15295;42.658;23.374;2023-05-24T17:02:12;94366.13;;;28.20;29.85
27958;BME280;15295;42.658;23.374;2023-05-24T17:04:38;94371.47;;;28.23;29.48
27958;BME280;15295;42.658;23.374;2023-05-24T17:07:08;94385.00;;;28.31;29.27
27958;BME280;15295;42.658;23.374;2023-05-24T17:09:33;94385.47;;;28.35;29.12
27958;BME280;15295;42.658;23.374;2023-05-24T17:11:59;94361.03;;;28.18;29.51
27958;BME280;15295;42.658;23.374;2023-05-24T17:14:24;94382.94;;;28.31;29.37
27958;BME280;15295;42.658;23.374;2023-05-24T17:16:49;94388.81;;;28.27;29.30
27958;BME280;15295;42.658;23.374;2023-05-24T17:19:15;94378.41;;;28.17;29.66
27958;BME280;15295;42.658;23.374;2023-05-24T17:21:43;94390.38;;;28.23;29.48
27958;BME280;15295;42.658;23.374;2023-05-24T17:24:08;94386.31;;;28.13;29.75
27958;BME280;15295;42.658;23.374;2023-05-24T17:26:34;94397.84;;;28.09;29.89
27958;BME280;15295;42.658;23.374;2023-05-24T17:29:10;94391.47;;;28.03;30.33
27958;BME280;15295;42.658;23.374;2023-05-24T17:31:38;94389.16;;;28.02;30.22
27958;BME280;15295;42.658;23.374;2023-05-24T17:50:18;94360.66;;;26.98;31.10
27958;BME280;15295;42.658;23.374;2023-05-24T17:52:45;94360.91;;;26.95;31.50
27958;BME280;15295;42.658;23.374;2023-05-24T17:55:14;94395.34;;;27.06;32.44
27958;BME280;15295;42.658;23.374;2023-05-24T17:57:42;94400.19;;;27.00;31.85
27958;BME280;15295;42.658;23.374;2023-05-24T18:00:07;94396.59;;;26.94;32.22
27958;BME280;15295;42.658;23.374;2023-05-24T18:02:33;94429.25;;;27.08;31.63
27958;BME280;15295;42.658;23.374;2023-05-24T18:07:33;94411.13;;;26.82;32.49
27958;BME280;15295;42.658;23.374;2023-05-24T18:10:01;94418.69;;;26.70;32.71
27958;BME280;15295;42.658;23.374;2023-05-24T18:12:30;94438.63;;;26.83;32.91
27958;BME280;15295;42.658;23.374;2023-05-24T18:15:06;94444.97;;;26.72;33.29
27958;BME280;15295;42.658;23.374;2023-05-24T18:17:50;94421.94;;;26.52;32.96
27958;BME280;15295;42.658;23.374;2023-05-24T18:20:15;94449.22;;;26.62;33.54
27958;BME280;15295;42.658;23.374;2023-05-24T18:22:45;94438.75;;;26.52;33.91
27958;BME280;15295;42.658;23.374;2023-05-24T18:25:31;94455.81;;;26.54;33.84
27958;BME280;15295;42.658;23.374;2023-05-24T18:27:57;94447.59;;;26.34;34.72
27958;BME280;15295;42.658;23.374;2023-05-24T18:30:28;94436.34;;;26.28;34.58
27958;BME280;15295;42.658;23.374;2023-05-24T18:32:56;94435.56;;;26.22;34.26
27958;BME280;15295;42.658;23.374;2023-05-24T18:35:42;94438.63;;;26.19;34.32
27958;BME280;15295;42.658;23.374;2023-05-24T18:38:09;94430.09;;;26.02;34.63
27958;BME280;15295;42.658;23.374;2023-05-24T18:40:47;94451.31;;;26.09;34.68
27958;BME280;15295;42.658;23.374;2023-05-24T18:43:19;94466.88;;;26.15;34.96
27958;BME280;15295;42.658;23.374;2023-05-24T18:45:49;94432.75;;;25.80;35.61
27958;BME280;15295;42.658;23.374;2023-05-24T18:48:21;94472.13;;;26.02;35.73
27958;BME280;15295;42.658;23.374;2023-05-24T18:50:50;94450.78;;;25.73;36.08
27958;BME280;15295;42.658;23.374;2023-05-24T18:53:25;94439.78;;;25.64;35.36
27958;BME280;15295;42.658;23.374;2023-05-24T18:56:28;94469.59;;;25.73;35.94
27958;BME280;15295;42.658;23.374;2023-05-24T18:59:06;94476.44;;;25.66;35.89
27958;BME280;15295;42.658;23.374;2023-05-24T19:01:39;94449.06;;;25.45;35.65
27958;BME280;15295;42.658;23.374;2023-05-24T19:04:19;94511.88;;;25.75;35.87
27958;BME280;15295;42.658;23.374;2023-05-24T19:06:45;94496.75;;;25.61;35.57
27958;BME280;15295;42.658;23.374;2023-05-24T19:09:34;94524.84;;;25.72;35.52
27958;BME280;15295;42.658;23.374;2023-05-24T19:12:01;94498.25;;;25.57;35.51
27958;BME280;15295;42.658;23.374;2023-05-24T19:14:28;94505.59;;;25.54;35.83
27958;BME280;15295;42.658;23.374;2023-05-24T19:16:56;94500.72;;;25.49;35.90
27958;BME280;15295;42.658;23.374;2023-05-24T19:19:22;94523.97;;;25.61;36.21
27958;BME280;15295;42.658;23.374;2023-05-24T19:22:09;94519.59;;;25.54;35.87
27958;BME280;15295;42.658;23.374;2023-05-24T19:24:35;94503.13;;;25.36;36.70
27958;BME280;15295;42.658;23.374;2023-05-24T19:27:00;94524.09;;;25.46;36.51
27958;BME280;15295;42.658;23.374;2023-05-24T19:29:27;94518.75;;;25.43;35.93
27958;BME280;15295;42.658;23.374;2023-05-24T19:32:05;94540.47;;;25.53;37.34
27958;BME280;15295;42.658;23.374;2023-05-24T19:34:36;94543.16;;;25.73;39.20
27958;BME280;15295;42.658;23.374;2023-05-24T19:37:07;94543.31;;;25.64;36.90
27958;BME280;15295;42.658;23.374;2023-05-24T19:39:34;94555.28;;;25.39;36.84
27958;BME280;15295;42.658;23.374;2023-05-24T19:42:06;94550.44;;;24.53;37.53
27958;BME280;15295;42.658;23.374;2023-05-24T19:44:31;94550.38;;;24.48;37.91
27958;BME280;15295;42.658;23.374;2023-05-24T19:47:00;94547.22;;;24.40;38.17
27958;BME280;15295;42.658;23.374;2023-05-24T19:49:25;94532.31;;;23.94;38.83
27958;BME280;15295;42.658;23.374;2023-05-24T19:51:51;94536.94;;;23.83;39.10
27958;BME280;15295;42.658;23.374;2023-05-24T19:54:16;94538.53;;;24.04;38.94
27958;BME280;15295;42.658;23.374;2023-05-24T19:56:48;94539.63;;;24.06;38.85
27958;BME280;15295;42.658;23.374;2023-05-24T19:59:35;94542.81;;;23.99;39.14
27958;BME280;15295;42.658;23.374;2023-05-24T20:02:00;94543.09;;;23.87;39.30
27958;BME280;15295;42.658;23.374;2023-05-24T20:04:25;94537.84;;;23.74;39.56
27958;BME280;15295;42.658;23.374;2023-05-24T20:06:55;94537.78;;;23.39;40.84
27958;BME280;15295;42.658;23.374;2023-05-24T20:09:23;94536.22;;;23.53;40.55
27958;BME280;15295;42.658;23.374;2023-05-24T20:11:48;94520.41;;;23.06;41.56
27958;BME280;15295;42.658;23.374;2023-05-24T20:14:14;94524.25;;;23.09;41.68
27958;BME280;15295;42.658;23.374;2023-05-24T20:16:39;94508.97;;;23.19;41.29
27958;BME280;15295;42.658;23.374;2023-05-24T20:19:05;94543.06;;;23.37;41.49
27958;BME280;15295;42.658;23.374;2023-05-24T20:21:31;94528.50;;;23.19;42.03
27958;BME280;15295;42.658;23.374;2023-05-24T20:23:57;94524.25;;;23.09;41.94
27958;BME280;15295;42.658;23.374;2023-05-24T20:26:25;94493.69;;;22.85;42.29
27958;BME280;15295;42.658;23.374;2023-05-24T20:28:51;94527.81;;;23.09;42.50
27958;BME280;15295;42.658;23.374;2023-05-24T20:31:18;94533.41;;;23.24;41.95
27958;BME280;15295;42.658;23.374;2023-05-24T20:33:43;94537.16;;;23.21;41.74
27958;BME280;15295;42.658;23.374;2023-05-24T20:36:08;94543.69;;;23.32;41.89
27958;BME280;15295;42.658;23.374;2023-05-24T20:38:50;94546.19;;;23.30;42.85
27958;BME280;15295;42.658;23.374;2023-05-24T20:41:16;94553.00;;;23.15;43.01
27958;BME280;15295;42.658;23.374;2023-05-24T20:43:42;94558.50;;;23.09;43.02
27958;BME280;15295;42.658;23.374;2023-05-24T20:46:08;94561.56;;;23.11;43.43
27958;BME280;15295;42.658;23.374;2023-05-24T20:48:33;94554.34;;;23.05;43.43
27958;BME280;15295;42.658;23.374;2023-05-24T20:50:58;94557.50;;;22.97;44.02
27958;BME280;15295;42.658;23.374;2023-05-24T20:53:24;94559.06;;;22.98;44.09
27958;BME280;15295;42.658;23.374;2023-05-24T20:55:49;94550.56;;;22.93;44.62